Time;durP1;ratioP1;P1;durP2;ratioP2;P2;SDS_P1;SDS_P2;PMS_P1;PMS_P2;Temp;Humidity;BMP_temperature;BMP_pressure;BME280_temperature;BME280_humidity;BME280_pressure;Samples;Min_cycle;Max_cycle;Signal;HPM_P1;HPM_P2
2021/10/30 00:00:23;;;;;;;9.88;5.95;;;8.00;99.90;;;;;;5055033;28;20373;-86
2021/10/30 00:02:49;;;;;;;11.73;5.53;;;8.10;99.90;;;;;;5055045;28;20020;-86
2021/10/30 00:05:15;;;;;;;10.43;5.90;;;7.90;99.90;;;;;;5055389;28;20032;-87
2021/10/30 00:07:42;;;;;;;12.60;6.90;;;7.70;99.90;;;;;;5055002;28;20089;-87
2021/10/30 00:10:11;;;;;;;9.43;5.75;;;7.70;99.90;;;;;;5055388;28;20135;-86
2021/10/30 00:12:37;;;;;;;9.93;5.78;;;7.60;99.90;;;;;;5055091;28;20041;-87
2021/10/30 00:15:03;;;;;;;7.97;4.85;;;7.80;99.90;;;;;;5054983;28;20016;-86
2021/10/30 00:17:29;;;;;;;9.07;5.18;;;7.90;99.90;;;;;;5054965;28;20021;-86
2021/10/30 00:19:55;;;;;;;12.60;5.53;;;8.10;99.90;;;;;;5054926;28;20044;-87
2021/10/30 00:22:21;;;;;;;12.15;5.90;;;7.90;99.90;;;;;;5054914;28;20024;-86
2021/10/30 00:24:47;;;;;;;10.00;5.13;;;7.80;99.90;;;;;;5054884;28;20429;-86
2021/10/30 00:27:13;;;;;;;6.68;4.43;;;7.70;99.90;;;;;;5055015;28;20031;-86
2021/10/30 00:29:39;;;;;;;9.13;5.05;;;7.70;99.90;;;;;;5054870;28;20488;-86
2021/10/30 00:32:06;;;;;;;10.40;5.47;;;7.70;99.90;;;;;;5055350;28;20027;-86
2021/10/30 00:34:32;;;;;;;9.98;5.45;;;7.50;99.90;;;;;;5054844;28;20116;-86
2021/10/30 00:36:58;;;;;;;9.80;5.13;;;7.20;99.90;;;;;;5073087;28;20429;-86
2021/10/30 00:39:24;;;;;;;9.55;4.75;;;7.20;99.90;;;;;;5054656;28;20024;-86
2021/10/30 00:41:51;;;;;;;11.00;5.68;;;7.10;99.90;;;;;;5054856;28;20573;-86
2021/10/30 00:44:18;;;;;;;9.43;5.00;;;7.30;99.90;;;;;;5072831;28;20024;-86
2021/10/30 00:46:46;;;;;;;8.35;5.43;;;7.20;99.90;;;;;;5054687;28;20495;-86
2021/10/30 00:49:14;;;;;;;11.32;5.00;;;7.20;99.90;;;;;;5072695;28;20150;-86
2021/10/30 00:51:42;;;;;;;7.10;4.32;;;7.30;99.90;;;;;;5055407;28;20491;-86
2021/10/30 00:54:09;;;;;;;7.97;4.68;;;7.70;99.90;;;;;;5054629;28;20135;-86
2021/10/30 00:56:36;;;;;;;11.10;5.20;;;7.70;99.90;;;;;;5054602;28;20020;-86
2021/10/30 00:59:09;;;;;;;7.13;4.80;;;7.60;99.90;;;;;;5054541;28;20024;-86
2021/10/30 01:01:36;;;;;;;10.32;5.20;;;7.70;99.90;;;;;;5054390;28;20074;-86
2021/10/30 01:04:02;;;;;;;8.27;4.78;;;7.90;99.90;;;;;;5054433;28;20033;-86
2021/10/30 01:06:29;;;;;;;8.25;4.60;;;7.90;99.90;;;;;;5054495;28;20446;-86
2021/10/30 01:08:55;;;;;;;7.70;4.90;;;8.00;99.90;;;;;;5055027;28;20056;-86
2021/10/30 01:11:21;;;;;;;8.35;4.53;;;8.10;99.90;;;;;;5055584;28;20039;-86
2021/10/30 01:13:48;;;;;;;9.52;4.85;;;7.80;99.90;;;;;;5055799;28;20017;-86
2021/10/30 01:16:16;;;;;;;7.00;4.57;;;7.70;99.90;;;;;;5054687;28;20447;-86
2021/10/30 01:18:43;;;;;;;7.53;4.50;;;7.80;99.90;;;;;;5054594;28;20075;-86
2021/10/30 01:21:09;;;;;;;8.95;4.80;;;7.60;99.90;;;;;;5056433;28;20028;-86
2021/10/30 01:23:35;;;;;;;8.48;4.72;;;7.70;99.90;;;;;;5058152;28;20020;-86
2021/10/30 01:26:02;;;;;;;6.97;4.45;;;7.80;99.90;;;;;;5058081;28;20503;-86
2021/10/30 01:28:31;;;;;;;9.30;5.68;;;8.00;99.90;;;;;;5058012;28;20476;-86
2021/10/30 01:30:58;;;;;;;9.95;5.07;;;7.80;99.90;;;;;;5058231;28;20119;-86
2021/10/30 01:33:24;;;;;;;7.65;5.15;;;7.90;99.90;;;;;;5057976;28;20068;-86
2021/10/30 01:35:50;;;;;;;10.40;4.65;;;7.90;99.90;;;;;;5057913;28;20074;-86
2021/10/30 01:38:17;;;;;;;9.50;5.05;;;7.50;99.90;;;;;;5057865;28;20481;-86
2021/10/30 01:40:48;;;;;;;9.10;4.60;;;7.20;99.90;;;;;;5075802;28;20024;-87
2021/10/30 01:43:15;;;;;;;10.18;4.47;;;7.40;99.90;;;;;;5057758;28;20492;-86
2021/10/30 01:45:43;;;;;;;10.90;5.05;;;7.90;99.90;;;;;;5057581;28;20024;-86
2021/10/30 01:48:10;;;;;;;10.25;5.00;;;7.60;99.90;;;;;;5057582;28;20024;-86
2021/10/30 01:50:37;;;;;;;6.57;4.75;;;7.30;99.90;;;;;;5058127;28;20035;-86
2021/10/30 01:53:04;;;;;;;8.55;4.53;;;7.20;99.90;;;;;;5057525;28;20032;-86
2021/10/30 01:55:36;;;;;;;6.57;4.22;;;7.20;99.90;;;;;;5057600;28;20387;-86
2021/10/30 01:58:02;;;;;;;7.03;4.43;;;7.50;99.90;;;;;;5057418;28;20020;-86
2021/10/30 02:00:28;;;;;;;6.25;3.97;;;7.70;99.90;;;;;;5057726;28;20036;-86
2021/10/30 02:02:54;;;;;;;9.20;4.70;;;7.90;99.90;;;;;;5075440;28;20028;-86
2021/10/30 02:05:20;;;;;;;8.60;4.00;;;7.60;99.90;;;;;;5057432;28;20533;-87
2021/10/30 02:07:46;;;;;;;6.70;4.57;;;7.30;99.90;;;;;;5057274;28;20082;-86
2021/10/30 02:10:13;;;;;;;8.02;4.55;;;7.10;99.90;;;;;;5057248;28;20052;-87
2021/10/30 02:12:39;;;;;;;7.85;4.07;;;7.10;99.90;;;;;;5057064;28;20518;-86
2021/10/30 02:15:06;;;;;;;6.90;3.95;;;7.20;99.90;;;;;;5057433;28;20384;-87
2021/10/30 02:17:32;;;;;;;6.15;3.97;;;7.30;99.90;;;;;;5057125;28;20025;-87
2021/10/30 02:19:58;;;;;;;6.95;4.30;;;7.70;99.90;;;;;;5057022;28;20051;-86
2021/10/30 02:22:24;;;;;;;6.40;3.95;;;7.70;99.90;;;;;;5056984;28;20024;-87
2021/10/30 02:24:51;;;;;;;6.97;3.92;;;7.50;99.90;;;;;;5057033;28;20024;-86
2021/10/30 02:27:17;;;;;;;7.15;4.30;;;7.50;99.90;;;;;;5057012;28;20396;-87
2021/10/30 02:29:43;;;;;;;8.60;4.60;;;7.30;99.90;;;;;;5057005;28;20102;-87
2021/10/30 02:32:09;;;;;;;7.07;4.65;;;7.10;99.90;;;;;;5056531;28;20500;-86
2021/10/30 02:34:36;;;;;;;6.68;4.13;;;6.90;99.90;;;;;;5074883;28;20020;-86
2021/10/30 02:37:02;;;;;;;11.85;4.70;;;6.80;99.90;;;;;;5056765;28;20503;-87
2021/10/30 02:39:28;;;;;;;6.50;4.30;;;6.60;99.90;;;;;;5056873;28;20021;-86
2021/10/30 02:41:54;;;;;;;6.13;4.15;;;6.60;99.90;;;;;;5056990;28;20504;-86
2021/10/30 02:44:20;;;;;;;7.03;4.43;;;6.60;99.90;;;;;;5057043;28;20079;-86
2021/10/30 02:46:45;;;;;;;5.03;3.58;;;6.80;99.90;;;;;;5056656;28;20028;-87
2021/10/30 02:49:11;;;;;;;6.25;4.07;;;7.00;99.90;;;;;;5056644;28;20438;-86
2021/10/30 02:51:37;;;;;;;6.65;3.75;;;7.10;99.90;;;;;;5056498;28;20511;-86
2021/10/30 02:54:03;;;;;;;10.27;4.57;;;7.00;99.90;;;;;;5056601;28;20028;-86
2021/10/30 02:56:29;;;;;;;7.88;4.13;;;7.00;99.90;;;;;;5056516;28;20500;-87
2021/10/30 02:58:55;;;;;;;8.80;4.47;;;7.00;99.90;;;;;;5056401;28;20016;-86
2021/10/30 03:01:21;;;;;;;9.77;4.13;;;7.10;99.90;;;;;;5056262;28;20045;-86
2021/10/30 03:03:47;;;;;;;5.90;3.17;;;7.10;99.90;;;;;;5056386;28;20112;-86
2021/10/30 03:06:15;;;;;;;7.18;4.20;;;7.50;99.90;;;;;;5074199;28;20434;-87
2021/10/30 03:08:40;;;;;;;8.00;4.30;;;7.40;99.90;;;;;;5056162;28;20024;-87
2021/10/30 03:11:06;;;;;;;7.78;4.00;;;7.30;99.90;;;;;;5056087;28;20035;-86
2021/10/30 03:13:32;;;;;;;5.90;3.72;;;7.20;99.90;;;;;;5056081;28;20027;-86
2021/10/30 03:15:58;;;;;;;7.88;3.72;;;7.40;99.90;;;;;;5056011;28;20024;-87
2021/10/30 03:18:24;;;;;;;8.13;4.10;;;7.20;99.90;;;;;;5056033;28;20032;-86
2021/10/30 03:20:50;;;;;;;6.80;4.00;;;7.00;99.90;;;;;;5056184;28;20020;-86
2021/10/30 03:23:16;;;;;;;8.65;3.63;;;7.10;99.90;;;;;;5057941;28;20116;-86
2021/10/30 03:25:42;;;;;;;6.68;4.53;;;7.20;99.90;;;;;;5057973;28;20476;-86
2021/10/30 03:28:08;;;;;;;6.32;4.28;;;7.50;99.90;;;;;;5056321;28;20082;-87
2021/10/30 03:30:36;;;;;;;9.27;5.88;;;7.60;99.90;;;;;;5055942;28;20032;-87
2021/10/30 03:33:01;;;;;;;12.82;5.97;;;7.20;99.90;;;;;;5055872;28;20094;-86
2021/10/30 03:35:27;;;;;;;11.35;5.57;;;7.00;99.90;;;;;;5055636;28;20024;-87
2021/10/30 03:37:54;;;;;;;6.63;4.57;;;6.70;99.90;;;;;;5055710;28;20022;-86
2021/10/30 03:40:20;;;;;;;8.88;4.43;;;6.40;99.90;;;;;;5055686;28;20024;-86
2021/10/30 03:42:46;;;;;;;9.95;4.22;;;6.30;99.90;;;;;;5055223;28;20416;-86
2021/10/30 03:45:12;;;;;;;10.77;4.57;;;6.30;99.90;;;;;;5055305;28;20130;-86
2021/10/30 03:47:38;;;;;;;6.95;4.35;;;6.30;99.90;;;;;;5055562;28;20395;-86
2021/10/30 03:50:04;;;;;;;5.65;3.65;;;6.50;99.90;;;;;;5055438;28;20029;-86
2021/10/30 03:52:29;;;;;;;8.38;4.13;;;7.00;99.90;;;;;;5055367;28;20438;-86
2021/10/30 03:54:55;;;;;;;6.72;3.80;;;7.00;99.90;;;;;;5055467;28;20112;-86
2021/10/30 03:57:22;;;;;;;6.47;3.53;;;6.90;99.90;;;;;;5055592;28;20384;-86
2021/10/30 03:59:47;;;;;;;9.48;3.75;;;6.80;99.90;;;;;;5055064;28;20056;-86
2021/10/30 04:02:13;;;;;;;6.75;4.35;;;7.10;99.90;;;;;;5055185;28;20532;-86
2021/10/30 04:04:40;;;;;;;9.32;5.35;;;7.10;99.90;;;;;;5038801;28;20050;-86
2021/10/30 04:07:06;;;;;;;9.52;6.72;;;6.90;99.90;;;;;;5055077;28;20024;-86
2021/10/30 04:09:32;;;;;;;7.43;4.65;;;6.80;99.90;;;;;;5055173;28;20031;-86
2021/10/30 04:11:58;;;;;;;5.10;3.92;;;6.60;99.90;;;;;;5055127;28;20377;-87
2021/10/30 04:14:23;;;;;;;6.60;4.18;;;6.50;99.90;;;;;;5055123;28;20074;-86
2021/10/30 04:16:49;;;;;;;6.35;4.10;;;6.50;99.90;;;;;;5055066;28;20040;-86
2021/10/30 04:19:15;;;;;;;6.88;4.38;;;6.40;99.90;;;;;;5055072;28;20021;-86
2021/10/30 04:21:42;;;;;;;8.70;4.43;;;6.70;99.90;;;;;;5073088;28;20020;-86
2021/10/30 04:24:08;;;;;;;7.97;4.28;;;6.40;99.90;;;;;;5055300;28;20123;-86
2021/10/30 04:26:34;;;;;;;8.07;4.30;;;6.40;99.90;;;;;;5055118;28;20043;-86
2021/10/30 04:29:01;;;;;;;9.35;4.40;;;6.80;99.90;;;;;;5054927;28;20507;-86
2021/10/30 04:31:29;;;;;;;7.32;4.00;;;6.80;99.90;;;;;;5054833;28;20097;-86
2021/10/30 04:34:00;;;;;;;7.57;4.00;;;6.70;99.90;;;;;;5054876;28;20480;-86
2021/10/30 04:36:28;;;;;;;7.22;3.40;;;6.60;99.90;;;;;;5054869;28;20031;-86
2021/10/30 04:38:54;;;;;;;7.97;3.67;;;7.10;99.90;;;;;;5054819;28;20025;-86
2021/10/30 04:41:21;;;;;;;7.57;4.10;;;7.10;99.90;;;;;;5054876;28;20527;-86
2021/10/30 04:43:47;;;;;;;5.53;3.90;;;7.00;99.90;;;;;;5054811;28;20400;-86
2021/10/30 04:46:20;;;;;;;12.40;3.70;;;6.80;99.90;;;;;;5054787;28;20492;-86
2021/10/30 04:48:46;;;;;;;5.30;3.65;;;7.10;99.90;;;;;;5054837;28;20365;-86
2021/10/30 04:51:12;;;;;;;5.03;3.88;;;7.10;99.90;;;;;;5072629;28;20050;-86
2021/10/30 04:53:41;;;;;;;9.18;4.13;;;6.70;99.90;;;;;;5054727;28;20086;-86
2021/10/30 04:56:07;;;;;;;5.30;3.65;;;6.70;99.90;;;;;;5076057;28;20021;-86
2021/10/30 04:58:34;;;;;;;7.40;4.18;;;6.90;99.90;;;;;;5058612;28;20020;-86
2021/10/30 05:01:01;;;;;;;4.93;3.58;;;7.00;99.90;;;;;;5058316;28;20487;-86
2021/10/30 05:03:27;;;;;;;7.10;3.75;;;7.10;99.90;;;;;;5058486;28;20502;-86
2021/10/30 05:05:53;;;;;;;8.68;3.92;;;6.70;99.90;;;;;;5058402;28;20111;-87
2021/10/30 05:08:20;;;;;;;9.20;4.05;;;6.60;99.90;;;;;;5058444;28;20043;-88
2021/10/30 05:10:45;;;;;;;8.80;4.40;;;6.40;99.90;;;;;;5058647;28;20025;-87
2021/10/30 05:13:12;;;;;;;6.53;4.78;;;6.20;99.90;;;;;;5076268;28;20093;-87
2021/10/30 05:15:37;;;;;;;7.05;4.15;;;6.20;99.90;;;;;;5076315;28;20032;-88
2021/10/30 05:18:03;;;;;;;6.78;3.97;;;6.30;99.90;;;;;;5059317;28;20055;-87
2021/10/30 05:20:29;;;;;;;8.45;4.68;;;6.40;99.90;;;;;;5058239;28;20101;-87
2021/10/30 05:22:55;;;;;;;7.78;4.05;;;6.50;99.90;;;;;;5058191;28;20031;-87
2021/10/30 05:25:22;;;;;;;7.88;3.60;;;6.30;99.90;;;;;;5058175;28;20021;-88
2021/10/30 05:27:48;;;;;;;6.55;4.18;;;6.50;99.90;;;;;;5058131;28;20028;-87
2021/10/30 05:30:14;;;;;;;9.85;4.32;;;6.20;99.90;;;;;;5058680;28;20032;-87
2021/10/30 05:32:40;;;;;;;6.95;4.63;;;6.00;99.90;;;;;;5058407;28;20028;-88
2021/10/30 05:35:06;;;;;;;8.20;4.38;;;5.90;99.90;;;;;;5066294;28;20472;-88
2021/10/30 05:37:31;;;;;;;6.55;4.25;;;5.70;99.90;;;;;;5065124;28;20425;-88
2021/10/30 05:39:57;;;;;;;8.57;4.25;;;5.90;99.90;;;;;;5059211;28;20029;-88
2021/10/30 05:42:23;;;;;;;7.20;4.22;;;6.10;99.90;;;;;;5076639;28;20097;-88
2021/10/30 05:44:49;;;;;;;5.10;3.80;;;6.20;99.90;;;;;;5058723;28;20054;-88
2021/10/30 05:47:15;;;;;;;8.25;3.72;;;6.60;99.90;;;;;;5058799;28;20460;-88
2021/10/30 05:49:43;;;;;;;6.55;4.05;;;7.00;99.90;;;;;;5058338;28;20083;-88
2021/10/30 05:52:10;;;;;;;6.55;3.83;;;7.10;99.90;;;;;;5057785;28;20496;-88
2021/10/30 05:54:38;;;;;;;6.78;4.35;;;7.30;99.90;;;;;;5057741;28;20035;-89
2021/10/30 05:57:04;;;;;;;7.05;4.32;;;7.20;99.90;;;;;;5057715;28;20476;-89
2021/10/30 05:59:30;;;;;;;8.35;3.75;;;7.20;99.90;;;;;;5057602;28;20025;-88
2021/10/30 06:01:56;;;;;;;8.30;3.63;;;6.90;99.90;;;;;;5057710;28;20064;-88
2021/10/30 06:04:22;;;;;;;11.70;3.92;;;6.70;99.90;;;;;;5057491;28;20090;-88
2021/10/30 06:06:48;;;;;;;7.53;4.35;;;6.80;99.90;;;;;;5056804;28;20028;-88
2021/10/30 06:09:15;;;;;;;5.75;3.95;;;6.70;99.90;;;;;;5057479;28;20131;-88
2021/10/30 06:11:41;;;;;;;6.35;3.97;;;6.40;99.90;;;;;;5057301;28;20510;-88
2021/10/30 06:14:09;;;;;;;8.52;5.00;;;6.60;99.90;;;;;;5058402;28;20446;-87
2021/10/30 06:16:35;;;;;;;10.10;5.63;;;6.20;99.90;;;;;;5057226;28;20464;-88
2021/10/30 06:19:02;;;;;;;8.45;4.53;;;6.20;99.90;;;;;;5057342;28;20391;-87
2021/10/30 06:21:28;;;;;;;7.22;4.70;;;6.00;99.90;;;;;;5057127;28;20039;-87
2021/10/30 06:23:58;;;;;;;6.55;4.57;;;6.10;99.90;;;;;;5057059;28;20119;-88
2021/10/30 06:26:24;;;;;;;7.82;5.18;;;6.00;99.90;;;;;;5057050;28;20036;-87
2021/10/30 06:28:50;;;;;;;10.23;5.13;;;5.90;99.90;;;;;;5057270;28;20396;-87
2021/10/30 06:31:15;;;;;;;7.93;4.00;;;6.00;99.90;;;;;;5057437;28;20027;-86
2021/10/30 06:33:41;;;;;;;5.80;4.53;;;6.20;99.90;;;;;;5056843;28;20024;-86
2021/10/30 06:36:08;;;;;;;8.63;4.60;;;6.40;99.90;;;;;;5056726;28;20024;-86
2021/10/30 06:38:36;;;;;;;6.88;4.70;;;6.40;99.90;;;;;;5056609;28;20031;-86
2021/10/30 06:41:05;;;;;;;5.43;4.38;;;6.40;99.90;;;;;;5056812;28;20025;-86
2021/10/30 06:43:31;;;;;;;6.85;4.07;;;6.20;99.90;;;;;;5057020;28;20439;-86
2021/10/30 06:45:57;;;;;;;9.43;4.75;;;6.40;99.90;;;;;;5056589;28;20020;-86
2021/10/30 06:48:24;;;;;;;8.00;4.38;;;6.70;99.90;;;;;;5074444;28;20031;-86
2021/10/30 06:50:51;;;;;;;14.38;4.70;;;6.90;99.90;;;;;;5056621;28;20055;-86
2021/10/30 06:53:16;;;;;;;9.10;4.93;;;7.10;99.90;;;;;;5074515;28;20024;-85
2021/10/30 06:55:43;;;;;;;12.77;4.68;;;7.10;99.90;;;;;;5056355;28;20164;-86
2021/10/30 06:58:09;;;;;;;6.22;3.97;;;7.50;99.90;;;;;;5074361;28;20047;-86
2021/10/30 07:00:35;;;;;;;6.68;4.07;;;7.70;99.90;;;;;;5056112;28;20349;-85
2021/10/30 07:03:02;;;;;;;5.28;3.50;;;7.80;99.90;;;;;;5074410;28;20025;-86
2021/10/30 07:05:28;;;;;;;6.45;3.88;;;8.10;99.90;;;;;;5056119;28;20496;-85
2021/10/30 07:07:53;;;;;;;6.32;3.83;;;7.90;99.90;;;;;;5055994;28;20035;-85
2021/10/30 07:10:19;;;;;;;7.15;3.75;;;8.00;99.90;;;;;;5056713;28;20020;-86
2021/10/30 07:12:45;;;;;;;7.60;4.15;;;8.10;99.90;;;;;;5055912;28;20404;-85
2021/10/30 07:15:13;;;;;;;6.18;3.75;;;8.20;99.90;;;;;;5074059;28;20032;-85
2021/10/30 07:17:40;;;;;;;6.38;3.90;;;8.00;99.90;;;;;;5055712;28;20115;-85
2021/10/30 07:20:07;;;;;;;6.35;3.97;;;8.10;99.90;;;;;;5055629;28;20024;-85
2021/10/30 07:22:50;;;;;;;7.30;4.32;;;8.10;99.90;;;;;;5056472;28;20079;-85
2021/10/30 07:25:20;;;;;;;6.93;4.88;;;8.10;99.90;;;;;;5039518;28;20444;-85
2021/10/30 07:27:46;;;;;;;15.00;6.55;;;7.70;99.90;;;;;;5056366;28;20400;-84
2021/10/30 07:30:15;;;;;;;8.88;5.78;;;7.40;99.90;;;;;;5074244;28;20020;-84
2021/10/30 07:32:41;;;;;;;7.95;5.38;;;7.20;99.90;;;;;;5012711;28;20382;-84
2021/10/30 07:35:08;;;;;;;10.32;5.78;;;7.30;99.90;;;;;;5013077;28;20048;-86
2021/10/30 07:37:35;;;;;;;13.10;5.75;;;7.40;99.90;;;;;;4996544;28;20038;-85
2021/10/30 07:40:02;;;;;;;15.32;8.25;;;7.40;99.90;;;;;;4995640;28;20026;-86
2021/10/30 07:42:28;;;;;;;6.93;4.43;;;7.30;99.90;;;;;;4995852;28;20421;-85
2021/10/30 07:44:54;;;;;;;7.13;4.43;;;7.40;99.90;;;;;;5004014;28;20041;-87
2021/10/30 07:47:21;;;;;;;8.18;5.30;;;7.90;99.90;;;;;;5009424;28;20034;-85
2021/10/30 07:49:47;;;;;;;8.85;5.95;;;8.00;99.90;;;;;;5001908;28;20037;-86
2021/10/30 07:52:13;;;;;;;8.45;4.47;;;7.90;99.90;;;;;;4998278;28;20481;-86
2021/10/30 07:54:39;;;;;;;12.55;7.28;;;7.80;99.90;;;;;;4998062;28;20022;-86
2021/10/30 07:57:12;;;;;;;13.90;8.88;;;7.90;99.90;;;;;;4997587;28;20030;-86
2021/10/30 07:59:40;;;;;;;10.15;6.13;;;7.80;99.90;;;;;;4994406;28;20030;-86
2021/10/30 08:02:07;;;;;;;9.88;5.30;;;7.90;99.90;;;;;;4975890;28;20034;-86
2021/10/30 08:04:34;;;;;;;19.27;6.90;;;8.20;99.90;;;;;;5027809;28;20090;-86
2021/10/30 08:07:00;;;;;;;9.18;6.00;;;8.50;99.90;;;;;;5035685;28;20540;-86
2021/10/30 08:09:26;;;;;;;9.35;5.78;;;8.70;99.90;;;;;;5053282;28;20098;-86
2021/10/30 08:11:52;;;;;;;13.43;5.10;;;8.60;99.90;;;;;;5035680;28;20025;-86
2021/10/30 08:14:18;;;;;;;10.20;4.45;;;8.60;99.90;;;;;;5036145;28;20036;-86
2021/10/30 08:16:44;;;;;;;7.65;4.95;;;8.60;99.90;;;;;;5035436;28;20064;-86
2021/10/30 08:19:10;;;;;;;12.00;6.30;;;8.60;99.90;;;;;;5036006;28;20056;-85
2021/10/30 08:21:36;;;;;;;9.10;5.45;;;8.50;99.90;;;;;;5035061;28;20111;-84
2021/10/30 08:24:03;;;;;;;12.70;5.57;;;8.50;99.90;;;;;;5035242;28;20536;-86
2021/10/30 08:26:29;;;;;;;23.55;12.52;;;8.50;99.90;;;;;;5053280;28;20400;-86
2021/10/30 08:28:56;;;;;;;15.75;9.27;;;8.40;99.90;;;;;;5035256;28;20032;-86
2021/10/30 08:31:22;;;;;;;17.67;8.25;;;8.30;99.90;;;;;;5039544;28;20453;-86
2021/10/30 08:33:48;;;;;;;18.60;8.20;;;8.30;99.90;;;;;;5059083;28;20495;-86
2021/10/30 08:36:14;;;;;;;14.77;6.82;;;8.40;99.90;;;;;;5059575;28;20025;-86
2021/10/30 08:38:40;;;;;;;8.40;5.90;;;8.40;99.90;;;;;;5040864;28;20021;-87
2021/10/30 08:41:06;;;;;;;10.55;6.35;;;8.40;99.90;;;;;;5041036;28;20381;-87
2021/10/30 08:43:32;;;;;;;15.05;8.50;;;8.40;99.90;;;;;;5058563;28;20021;-87
2021/10/30 08:46:00;;;;;;;11.30;6.57;;;8.40;99.90;;;;;;5040157;28;20025;-87
2021/10/30 08:48:29;;;;;;;12.80;7.07;;;8.50;99.90;;;;;;5039203;28;20476;-86
2021/10/30 08:50:55;;;;;;;11.43;5.95;;;8.40;99.90;;;;;;5039297;28;20032;-86
2021/10/30 08:53:22;;;;;;;13.30;8.40;;;8.50;99.90;;;;;;5038833;28;20029;-86
2021/10/30 08:55:49;;;;;;;17.23;9.55;;;8.60;99.90;;;;;;5039081;28;20025;-86
2021/10/30 08:58:16;;;;;;;14.23;7.10;;;8.60;99.90;;;;;;5056961;28;20427;-86
2021/10/30 09:00:51;;;;;;;9.48;4.93;;;8.60;99.90;;;;;;5050948;28;20040;-86
2021/10/30 09:03:19;;;;;;;7.85;5.35;;;8.50;99.90;;;;;;5058994;28;20488;-87
2021/10/30 09:05:48;;;;;;;11.70;6.90;;;8.80;99.90;;;;;;5058774;28;20098;-87
2021/10/30 09:08:15;;;;;;;17.42;9.50;;;8.90;99.90;;;;;;5058525;28;20062;-86
2021/10/30 09:10:44;;;;;;;10.95;5.70;;;9.00;99.90;;;;;;5076480;28;20399;-86
2021/10/30 09:13:12;;;;;;;12.65;5.88;;;9.00;99.90;;;;;;5076431;28;20361;-86
2021/10/30 09:15:39;;;;;;;15.30;5.30;;;9.10;99.90;;;;;;5076265;28;20021;-86
2021/10/30 09:18:28;;;;;;;10.32;4.68;;;9.10;99.90;;;;;;5058495;28;20384;-87
2021/10/30 09:21:04;;;;;;;5.88;4.40;;;9.10;99.90;;;;;;5059035;28;20028;-87
2021/10/30 09:23:35;;;;;;;16.85;8.02;;;9.00;99.90;;;;;;5058836;28;20511;-86
2021/10/30 09:26:06;;;;;;;10.77;6.47;;;8.90;99.90;;;;;;5058843;28;20064;-86
2021/10/30 09:28:48;;;;;;;12.13;6.57;;;8.90;99.90;;;;;;5058385;28;20503;-86
2021/10/30 09:31:15;;;;;;;15.18;6.85;;;8.90;99.90;;;;;;5076717;28;20021;-87
2021/10/30 09:34:01;;;;;;;10.45;5.68;;;8.90;99.90;;;;;;5059902;28;20120;-87
2021/10/30 09:36:39;;;;;;;10.80;6.13;;;9.00;99.90;;;;;;5059016;28;20365;-86
2021/10/30 09:39:15;;;;;;;13.60;7.75;;;9.00;99.90;;;;;;5058373;28;20024;-87
2021/10/30 09:41:47;;;;;;;16.45;10.05;;;8.90;99.90;;;;;;5056851;28;20032;-86
2021/10/30 09:44:20;;;;;;;16.17;8.20;;;8.80;99.90;;;;;;5076106;28;20392;-87
2021/10/30 09:46:52;;;;;;;16.85;7.43;;;8.80;99.90;;;;;;5075928;28;20074;-86
2021/10/30 09:49:19;;;;;;;24.00;12.57;;;8.80;99.90;;;;;;5058483;28;20490;-87
2021/10/30 09:51:51;;;;;;;24.40;12.52;;;8.80;99.90;;;;;;5058339;28;20111;-86
2021/10/30 09:54:34;;;;;;;18.23;9.82;;;8.80;99.90;;;;;;5080242;28;20016;-86
2021/10/30 09:57:00;;;;;;;15.95;9.18;;;8.90;99.90;;;;;;5070944;28;20060;-87
2021/10/30 09:59:27;;;;;;;18.50;10.40;;;9.00;99.90;;;;;;5065240;28;20075;-86
2021/10/30 10:01:53;;;;;;;21.02;13.57;;;9.00;99.90;;;;;;5078501;28;20498;-87
2021/10/30 10:04:21;;;;;;;19.90;12.32;;;9.00;99.90;;;;;;5078329;28;20369;-87
2021/10/30 10:06:49;;;;;;;21.10;12.80;;;9.00;99.90;;;;;;5059304;28;20051;-87
2021/10/30 10:09:18;;;;;;;16.90;11.05;;;9.00;99.90;;;;;;5058493;28;20040;-87
2021/10/30 10:11:48;;;;;;;22.00;10.20;;;9.10;99.90;;;;;;5058530;28;20024;-87
2021/10/30 10:14:18;;;;;;;13.88;9.07;;;9.30;99.90;;;;;;5058044;28;20031;-87
2021/10/30 10:16:48;;;;;;;19.35;10.75;;;9.30;99.90;;;;;;5057510;28;20530;-87
2021/10/30 10:19:14;;;;;;;16.13;9.48;;;9.30;99.90;;;;;;5058017;28;20029;-86
2021/10/30 10:21:40;;;;;;;15.95;10.30;;;9.20;99.90;;;;;;5057163;28;20082;-86
2021/10/30 10:24:18;;;;;;;21.42;11.40;;;9.20;99.90;;;;;;5075260;28;20032;-88
2021/10/30 10:26:55;;;;;;;23.42;10.48;;;9.20;99.90;;;;;;5057782;28;20142;-87
2021/10/30 10:29:43;;;;;;;15.18;10.10;;;9.10;99.90;;;;;;5057104;28;20020;-87
2021/10/30 10:32:23;;;;;;;19.40;9.80;;;9.10;99.90;;;;;;5057144;28;20115;-88
2021/10/30 10:34:50;;;;;;;15.48;9.75;;;9.20;99.90;;;;;;5057319;28;20032;-87
2021/10/30 10:37:19;;;;;;;15.15;8.27;;;9.30;99.90;;;;;;5057180;28;20115;-87
2021/10/30 10:39:49;;;;;;;17.10;9.60;;;9.40;99.90;;;;;;5057104;28;20028;-85
2021/10/30 10:42:40;;;;;;;19.55;11.10;;;9.40;99.90;;;;;;5056946;28;20145;-86
2021/10/30 10:45:07;;;;;;;18.73;11.60;;;9.30;99.90;;;;;;5045434;28;20033;-86
2021/10/30 10:47:35;;;;;;;16.45;9.13;;;9.30;99.90;;;;;;5056747;28;20534;-85
2021/10/30 10:50:16;;;;;;;17.58;9.95;;;9.40;99.90;;;;;;5057308;28;20357;-87
2021/10/30 10:53:08;;;;;;;18.15;8.35;;;9.50;99.90;;;;;;5074535;28;20024;-88
2021/10/30 10:55:55;;;;;;;12.45;7.88;;;9.80;99.90;;;;;;5058390;28;20350;-88
2021/10/30 10:58:20;;;;;;;12.93;8.25;;;9.70;99.90;;;;;;5058217;28;20392;-86
2021/10/30 11:01:15;;;;;;;16.90;8.98;;;9.70;99.90;;;;;;5057055;28;20124;-85
2021/10/30 11:03:43;;;;;;;19.83;8.63;;;9.70;99.90;;;;;;5074510;28;20523;-82
2021/10/30 11:06:09;;;;;;;12.85;8.70;;;9.70;99.90;;;;;;5056679;28;20472;-83
2021/10/30 11:08:36;;;;;;;17.05;9.55;;;9.70;99.90;;;;;;5074105;28;20016;-84
2021/10/30 11:11:24;;;;;;;17.77;8.05;;;9.70;99.90;;;;;;5056103;28;20024;-84
2021/10/30 11:13:57;;;;;;;18.80;10.02;;;9.70;99.90;;;;;;5055860;28;20021;-83
2021/10/30 11:16:38;;;;;;;14.35;8.15;;;9.70;99.90;;;;;;5056672;28;20059;-83
2021/10/30 11:19:06;;;;;;;22.83;12.82;;;9.80;99.90;;;;;;5039665;28;20052;-83
2021/10/30 11:21:40;;;;;;;17.00;10.35;;;9.70;99.90;;;;;;5056214;28;20040;-85
2021/10/30 11:24:21;;;;;;;18.42;12.35;;;9.80;99.90;;;;;;5056038;28;20496;-85
2021/10/30 11:27:01;;;;;;;21.60;12.45;;;9.80;99.90;;;;;;5074149;28;20103;-84
2021/10/30 11:29:27;;;;;;;24.00;15.00;;;9.80;99.90;;;;;;5055897;28;20024;-85
2021/10/30 11:31:54;;;;;;;15.25;9.13;;;9.80;99.90;;;;;;5055675;28;20035;-85
2021/10/30 11:34:20;;;;;;;13.75;7.70;;;9.70;99.90;;;;;;5055757;28;20102;-84
2021/10/30 11:36:47;;;;;;;15.48;9.65;;;9.80;99.90;;;;;;5055710;28;20032;-84
2021/10/30 11:39:14;;;;;;;18.25;9.80;;;9.80;99.90;;;;;;5055807;28;20032;-83
2021/10/30 11:41:42;;;;;;;22.77;13.38;;;9.80;99.90;;;;;;5073645;28;20391;-82
2021/10/30 11:44:20;;;;;;;18.63;12.18;;;9.70;99.90;;;;;;5055699;28;20025;-83
2021/10/30 11:46:55;;;;;;;19.58;9.20;;;9.60;99.90;;;;;;5055608;28;20111;-83
2021/10/30 11:49:30;;;;;;;30.50;14.50;;;9.60;99.90;;;;;;5055616;28;20027;-82
2021/10/30 11:52:01;;;;;;;19.40;11.68;;;9.50;99.90;;;;;;5055369;28;20028;-82
2021/10/30 11:54:27;;;;;;;20.40;10.82;;;9.50;99.90;;;;;;5055466;28;20392;-82
2021/10/30 11:56:53;;;;;;;21.38;12.48;;;9.50;99.90;;;;;;5055296;28;20021;-82
2021/10/30 11:59:19;;;;;;;20.50;12.23;;;9.50;99.90;;;;;;5055261;28;20085;-82
2021/10/30 12:01:49;;;;;;;15.30;10.70;;;9.50;99.90;;;;;;5073094;28;20055;-82
2021/10/30 12:04:24;;;;;;;23.63;13.15;;;9.60;99.90;;;;;;5054700;28;20058;-83
2021/10/30 12:06:51;;;;;;;15.98;10.88;;;9.60;99.90;;;;;;5073480;28;20024;-82
2021/10/30 12:09:26;;;;;;;21.10;9.82;;;9.60;99.90;;;;;;5056164;28;20536;-82
2021/10/30 12:11:53;;;;;;;17.10;9.68;;;9.60;99.90;;;;;;5055115;28;20036;-82
2021/10/30 12:14:24;;;;;;;17.67;9.63;;;9.60;99.90;;;;;;5055115;28;20114;-82
2021/10/30 12:16:50;;;;;;;16.48;9.20;;;9.60;99.90;;;;;;5054932;28;20056;-83
2021/10/30 12:19:16;;;;;;;13.35;8.82;;;9.70;99.90;;;;;;5055060;28;20476;-82
2021/10/30 12:21:42;;;;;;;17.70;9.65;;;9.70;99.90;;;;;;5055023;28;20032;-82
2021/10/30 12:24:11;;;;;;;33.60;13.07;;;9.80;99.90;;;;;;5054984;28;20027;-82
2021/10/30 12:26:55;;;;;;;22.25;11.25;;;9.90;99.90;;;;;;5055103;28;20028;-82
2021/10/30 12:29:23;;;;;;;13.52;8.60;;;10.00;99.90;;;;;;5055021;28;20025;-83
2021/10/30 12:32:05;;;;;;;16.20;7.40;;;10.00;99.90;;;;;;5072976;28;20108;-82
2021/10/30 12:34:36;;;;;;;11.73;7.57;;;10.10;99.90;;;;;;5073070;28;20017;-82
2021/10/30 12:37:06;;;;;;;10.35;6.88;;;10.10;99.90;;;;;;5055873;28;20028;-81
2021/10/30 12:39:33;;;;;;;11.70;7.35;;;10.00;99.90;;;;;;5054911;28;20435;-82
2021/10/30 12:42:07;;;;;;;18.50;8.75;;;10.00;99.90;;;;;;5054859;28;20074;-81
2021/10/30 12:44:36;;;;;;;13.60;7.40;;;10.00;99.90;;;;;;5054746;28;20036;-82
2021/10/30 12:47:11;;;;;;;11.73;7.25;;;10.00;99.90;;;;;;5072722;28;20028;-82
2021/10/30 12:49:37;;;;;;;11.98;7.00;;;9.90;99.90;;;;;;5072820;28;20044;-82
2021/10/30 12:52:05;;;;;;;15.43;7.82;;;10.00;99.90;;;;;;5054768;28;20029;-82
2021/10/30 12:54:31;;;;;;;16.98;8.20;;;10.00;99.90;;;;;;5054838;28;20408;-82